sensor_id;sensor_type;location;lat;lon;timestamp;pressure;altitude;pressure_sealevel;temperature;humidity
28665;BME280;15850;47.524;7.814;2022-12-18T00:02:27;97571.59;;;-9.42;100.00
28665;BME280;15850;47.524;7.814;2022-12-18T00:04:58;97855.69;;;-7.79;100.00
28665;BME280;15850;47.524;7.814;2022-12-18T00:07:27;97590.88;;;-9.16;100.00
28665;BME280;15850;47.524;7.814;2022-12-18T00:09:53;97638.91;;;-9.14;100.00
28665;BME280;15850;47.524;7.814;2022-12-18T00:12:19;97545.50;;;-9.50;100.00
28665;BME280;15850;47.524;7.814;2022-12-18T00:14:59;98125.91;;;-5.95;100.00
28665;BME280;15850;47.524;7.814;2022-12-18T00:17:26;97804.69;;;-8.30;100.00
28665;BME280;15850;47.524;7.814;2022-12-18T00:19:56;97642.66;;;-8.97;100.00
28665;BME280;15850;47.524;7.814;2022-12-18T00:22:23;97642.81;;;-8.92;100.00
28665;BME280;15850;47.524;7.814;2022-12-18T00:24:52;98664.53;;;-2.39;100.00
28665;BME280;15850;47.524;7.814;2022-12-18T00:27:19;98738.59;;;-2.29;100.00
28665;BME280;15850;47.524;7.814;2022-12-18T00:29:51;97894.88;;;-7.44;100.00
28665;BME280;15850;47.524;7.814;2022-12-18T00:32:24;97714.78;;;-8.35;100.00
28665;BME280;15850;47.524;7.814;2022-12-18T00:35:00;97625.28;;;-8.80;100.00
28665;BME280;15850;47.524;7.814;2022-12-18T00:37:28;97985.31;;;-6.92;100.00
28665;BME280;15850;47.524;7.814;2022-12-18T00:39:56;97714.16;;;-8.55;100.00
28665;BME280;15850;47.524;7.814;2022-12-18T00:42:29;97735.97;;;-8.41;100.00
28665;BME280;15850;47.524;7.814;2022-12-18T00:45:00;97623.94;;;-8.89;100.00
28665;BME280;15850;47.524;7.814;2022-12-18T00:47:30;97686.19;;;-8.88;100.00
28665;BME280;15850;47.524;7.814;2022-12-18T00:50:00;98084.41;;;-6.01;100.00
28665;BME280;15850;47.524;7.814;2022-12-18T00:52:27;97615.09;;;-9.01;100.00
28665;BME280;15850;47.524;7.814;2022-12-18T00:55:00;97622.28;;;-8.83;100.00
28665;BME280;15850;47.524;7.814;2022-12-18T00:57:32;97670.59;;;-8.64;100.00
28665;BME280;15850;47.524;7.814;2022-12-18T01:00:11;98093.81;;;-6.05;100.00
28665;BME280;15850;47.524;7.814;2022-12-18T01:02:43;97617.06;;;-9.22;100.00
28665;BME280;15850;47.524;7.814;2022-12-18T01:05:18;97681.03;;;-8.76;100.00
28665;BME280;15850;47.524;7.814;2022-12-18T01:07:47;98109.09;;;-6.07;100.00
28665;BME280;15850;47.524;7.814;2022-12-18T01:10:18;97650.56;;;-8.72;100.00
28665;BME280;15850;47.524;7.814;2022-12-18T01:12:50;97640.19;;;-8.92;100.00
28665;BME280;15850;47.524;7.814;2022-12-18T01:15:21;97693.63;;;-8.78;100.00
28665;BME280;15850;47.524;7.814;2022-12-18T01:17:49;98114.06;;;-5.93;100.00
28665;BME280;15850;47.524;7.814;2022-12-18T01:20:18;98688.91;;;-2.24;100.00
28665;BME280;15850;47.524;7.814;2022-12-18T01:22:45;98429.06;;;-4.11;100.00
28665;BME280;15850;47.524;7.814;2022-12-18T01:25:12;98686.81;;;-2.33;100.00
28665;BME280;15850;47.524;7.814;2022-12-18T01:27:47;98213.56;;;-5.60;100.00
28665;BME280;15850;47.524;7.814;2022-12-18T01:30:13;98247.91;;;-5.10;100.00
28665;BME280;15850;47.524;7.814;2022-12-18T01:32:46;98212.16;;;-5.44;100.00
28665;BME280;15850;47.524;7.814;2022-12-18T01:35:17;97705.28;;;-8.92;100.00
28665;BME280;15850;47.524;7.814;2022-12-18T01:37:50;97566.47;;;-9.68;100.00
28665;BME280;15850;47.524;7.814;2022-12-18T01:40:21;98675.03;;;-2.56;100.00
28665;BME280;15850;47.524;7.814;2022-12-18T01:42:52;97724.53;;;-8.92;100.00
28665;BME280;15850;47.524;7.814;2022-12-18T01:45:26;98269.41;;;-5.18;100.00
28665;BME280;15850;47.524;7.814;2022-12-18T01:48:04;98209.34;;;-5.86;100.00
28665;BME280;15850;47.524;7.814;2022-12-18T01:50:40;97768.28;;;-8.46;100.00
28665;BME280;15850;47.524;7.814;2022-12-18T01:53:15;97802.97;;;-8.42;100.00
28665;BME280;15850;47.524;7.814;2022-12-18T01:55:46;98348.50;;;-4.72;100.00
28665;BME280;15850;47.524;7.814;2022-12-18T01:58:18;97647.47;;;-8.94;100.00
28665;BME280;15850;47.524;7.814;2022-12-18T02:01:16;98722.75;;;-2.24;100.00
28665;BME280;15850;47.524;7.814;2022-12-18T02:03:46;97820.63;;;-8.43;100.00
28665;BME280;15850;47.524;7.814;2022-12-18T02:06:16;97636.75;;;-9.31;100.00
28665;BME280;15850;47.524;7.814;2022-12-18T02:08:54;98706.25;;;-2.33;100.00
28665;BME280;15850;47.524;7.814;2022-12-18T02:11:35;97783.69;;;-8.18;100.00
28665;BME280;15850;47.524;7.814;2022-12-18T02:14:17;97813.41;;;-8.29;100.00
28665;BME280;15850;47.524;7.814;2022-12-18T02:16:58;97846.69;;;-7.96;100.00
28665;BME280;15850;47.524;7.814;2022-12-18T02:19:58;98332.66;;;-4.97;100.00
28665;BME280;15850;47.524;7.814;2022-12-18T02:22:36;98178.31;;;-6.22;100.00
28665;BME280;15850;47.524;7.814;2022-12-18T02:25:21;97759.38;;;-8.83;100.00
28665;BME280;15850;47.524;7.814;2022-12-18T02:27:58;98298.31;;;-5.10;100.00
28665;BME280;15850;47.524;7.814;2022-12-18T02:30:27;98162.19;;;-5.96;100.00
28665;BME280;15850;47.524;7.814;2022-12-18T02:33:03;98337.84;;;-4.83;100.00
28665;BME280;15850;47.524;7.814;2022-12-18T02:35:32;97687.00;;;-9.26;100.00
28665;BME280;15850;47.524;7.814;2022-12-18T02:38:15;97629.94;;;-9.45;100.00
28665;BME280;15850;47.524;7.814;2022-12-18T02:40:49;97738.84;;;-8.75;100.00
28665;BME280;15850;47.524;7.814;2022-12-18T02:43:25;98735.91;;;-2.41;100.00
28665;BME280;15850;47.524;7.814;2022-12-18T02:45:57;97775.69;;;-8.61;100.00
28665;BME280;15850;47.524;7.814;2022-12-18T02:48:29;98146.31;;;-6.46;100.00
28665;BME280;15850;47.524;7.814;2022-12-18T02:51:01;97737.56;;;-8.97;100.00
28665;BME280;15850;47.524;7.814;2022-12-18T02:53:42;97620.22;;;-9.89;100.00
28665;BME280;15850;47.524;7.814;2022-12-18T02:56:15;97769.63;;;-9.00;100.00
28665;BME280;15850;47.524;7.814;2022-12-18T02:58:58;97707.28;;;-9.26;100.00
28665;BME280;15850;47.524;7.814;2022-12-18T03:01:38;98731.34;;;-2.83;100.00
28665;BME280;15850;47.524;7.814;2022-12-18T03:04:14;98158.97;;;-6.48;100.00
28665;BME280;15850;47.524;7.814;2022-12-18T03:06:48;98773.38;;;-2.85;100.00
28665;BME280;15850;47.524;7.814;2022-12-18T03:09:22;97592.97;;;-10.08;100.00
28665;BME280;15850;47.524;7.814;2022-12-18T03:15:26;98738.88;;;-2.79;100.00
28665;BME280;15850;47.524;7.814;2022-12-18T03:18:05;98492.63;;;-4.64;100.00
28665;BME280;15850;47.524;7.814;2022-12-18T03:20:37;98585.91;;;-3.92;100.00
28665;BME280;15850;47.524;7.814;2022-12-18T03:23:09;98608.34;;;-3.88;100.00
28665;BME280;15850;47.524;7.814;2022-12-18T03:25:40;98752.16;;;-2.91;100.00
28665;BME280;15850;47.524;7.814;2022-12-18T03:28:10;98675.72;;;-3.39;100.00
28665;BME280;15850;47.524;7.814;2022-12-18T03:30:44;98621.78;;;-3.65;100.00
28665;BME280;15850;47.524;7.814;2022-12-18T03:33:16;98643.22;;;-3.60;100.00
28665;BME280;15850;47.524;7.814;2022-12-18T03:35:49;97801.97;;;-9.38;100.00
28665;BME280;15850;47.524;7.814;2022-12-18T03:38:17;97952.56;;;-8.05;100.00
28665;BME280;15850;47.524;7.814;2022-12-18T03:40:55;98754.66;;;-2.96;100.00
28665;BME280;15850;47.524;7.814;2022-12-18T03:43:32;98747.34;;;-3.01;100.00
28665;BME280;15850;47.524;7.814;2022-12-18T03:46:06;98751.72;;;-3.07;100.00
28665;BME280;15850;47.524;7.814;2022-12-18T03:48:37;98702.06;;;-3.31;100.00
28665;BME280;15850;47.524;7.814;2022-12-18T03:51:11;98745.34;;;-3.05;100.00
28665;BME280;15850;47.524;7.814;2022-12-18T03:53:44;98656.00;;;-3.68;100.00
28665;BME280;15850;47.524;7.814;2022-12-18T03:56:13;98725.69;;;-3.23;100.00
28665;BME280;15850;47.524;7.814;2022-12-18T03:58:43;98757.16;;;-3.01;100.00
28665;BME280;15850;47.524;7.814;2022-12-18T04:01:25;98748.91;;;-3.12;100.00
28665;BME280;15850;47.524;7.814;2022-12-18T04:03:52;98746.66;;;-3.15;100.00
28665;BME280;15850;47.524;7.814;2022-12-18T04:06:19;98613.34;;;-3.98;100.00
28665;BME280;15850;47.524;7.814;2022-12-18T04:08:46;98672.91;;;-3.63;100.00
28665;BME280;15850;47.524;7.814;2022-12-18T04:11:15;98742.56;;;-3.11;100.00
28665;BME280;15850;47.524;7.814;2022-12-18T04:13:43;98427.78;;;-5.18;100.00
28665;BME280;15850;47.524;7.814;2022-12-18T04:16:16;98303.28;;;-5.82;100.00
28665;BME280;15850;47.524;7.814;2022-12-18T04:18:45;98618.78;;;-3.87;100.00
28665;BME280;15850;47.524;7.814;2022-12-18T04:21:11;98745.78;;;-3.09;100.00
28665;BME280;15850;47.524;7.814;2022-12-18T04:23:37;98624.34;;;-3.95;100.00
28665;BME280;15850;47.524;7.814;2022-12-18T04:26:03;98744.25;;;-3.16;100.00
28665;BME280;15850;47.524;7.814;2022-12-18T04:28:39;98750.97;;;-3.14;100.00
28665;BME280;15850;47.524;7.814;2022-12-18T04:31:05;98756.59;;;-3.22;100.00
28665;BME280;15850;47.524;7.814;2022-12-18T04:33:31;98654.78;;;-3.91;100.00
28665;BME280;15850;47.524;7.814;2022-12-18T04:35:58;98681.78;;;-3.69;100.00
28665;BME280;15850;47.524;7.814;2022-12-18T04:38:24;98736.31;;;-3.41;100.00
28665;BME280;15850;47.524;7.814;2022-12-18T04:40:57;98743.16;;;-3.27;100.00
28665;BME280;15850;47.524;7.814;2022-12-18T04:43:25;98657.78;;;-3.81;100.00
28665;BME280;15850;47.524;7.814;2022-12-18T04:45:50;98115.91;;;-7.18;100.00
28665;BME280;15850;47.524;7.814;2022-12-18T04:48:16;98716.97;;;-3.30;100.00
28665;BME280;15850;47.524;7.814;2022-12-18T04:50:42;98692.06;;;-3.36;100.00
28665;BME280;15850;47.524;7.814;2022-12-18T04:53:09;98756.75;;;-3.17;100.00
28665;BME280;15850;47.524;7.814;2022-12-18T04:55:34;98745.50;;;-3.19;100.00
28665;BME280;15850;47.524;7.814;2022-12-18T04:58:00;98743.59;;;-3.30;100.00
28665;BME280;15850;47.524;7.814;2022-12-18T05:00:26;98720.97;;;-3.39;100.00
28665;BME280;15850;47.524;7.814;2022-12-18T05:02:51;98278.13;;;-6.23;100.00
28665;BME280;15850;47.524;7.814;2022-12-18T05:05:17;98741.13;;;-3.32;100.00
28665;BME280;15850;47.524;7.814;2022-12-18T05:07:42;98724.50;;;-3.45;100.00
28665;BME280;15850;47.524;7.814;2022-12-18T05:10:09;98743.50;;;-3.23;100.00
28665;BME280;15850;47.524;7.814;2022-12-18T05:12:35;98745.06;;;-3.16;100.00
28665;BME280;15850;47.524;7.814;2022-12-18T05:15:01;98542.31;;;-4.46;100.00
28665;BME280;15850;47.524;7.814;2022-12-18T05:17:29;98737.97;;;-3.22;100.00
28665;BME280;15850;47.524;7.814;2022-12-18T05:19:54;98585.06;;;-4.30;100.00
28665;BME280;15850;47.524;7.814;2022-12-18T05:22:20;98666.69;;;-3.75;100.00
28665;BME280;15850;47.524;7.814;2022-12-18T05:24:45;98741.06;;;-3.25;100.00
28665;BME280;15850;47.524;7.814;2022-12-18T05:27:12;98696.34;;;-3.53;100.00
28665;BME280;15850;47.524;7.814;2022-12-18T05:29:38;98750.44;;;-3.22;100.00
28665;BME280;15850;47.524;7.814;2022-12-18T05:32:04;98753.06;;;-3.34;100.00
28665;BME280;15850;47.524;7.814;2022-12-18T05:34:29;98729.69;;;-3.50;100.00
28665;BME280;15850;47.524;7.814;2022-12-18T05:36:55;98761.16;;;-3.29;100.00
28665;BME280;15850;47.524;7.814;2022-12-18T05:39:20;98560.78;;;-4.58;100.00
28665;BME280;15850;47.524;7.814;2022-12-18T05:41:46;98753.06;;;-3.34;100.00
28665;BME280;15850;47.524;7.814;2022-12-18T05:44:13;98374.94;;;-5.70;100.00
28665;BME280;15850;47.524;7.814;2022-12-18T05:46:38;98585.94;;;-4.61;100.00
28665;BME280;15850;47.524;7.814;2022-12-18T05:49:06;98662.50;;;-4.08;100.00
28665;BME280;15850;47.524;7.814;2022-12-18T05:51:32;98770.78;;;-3.46;100.00
28665;BME280;15850;47.524;7.814;2022-12-18T05:53:57;98673.31;;;-4.03;100.00
28665;BME280;15850;47.524;7.814;2022-12-18T05:56:23;98780.75;;;-3.42;100.00
28665;BME280;15850;47.524;7.814;2022-12-18T05:58:52;98760.66;;;-3.38;100.00
28665;BME280;15850;47.524;7.814;2022-12-18T06:01:21;98660.47;;;-4.06;100.00
28665;BME280;15850;47.524;7.814;2022-12-18T06:03:47;98667.94;;;-3.96;100.00
28665;BME280;15850;47.524;7.814;2022-12-18T06:06:13;98508.56;;;-4.89;100.00
28665;BME280;15850;47.524;7.814;2022-12-18T06:08:39;98707.13;;;-3.66;100.00
28665;BME280;15850;47.524;7.814;2022-12-18T06:11:04;98774.19;;;-3.21;100.00
28665;BME280;15850;47.524;7.814;2022-12-18T06:13:30;98462.94;;;-5.30;100.00
28665;BME280;15850;47.524;7.814;2022-12-18T06:15:55;98781.22;;;-3.26;100.00
28665;BME280;15850;47.524;7.814;2022-12-18T06:18:22;98626.75;;;-4.30;100.00
28665;BME280;15850;47.524;7.814;2022-12-18T06:20:54;98787.91;;;-3.42;100.00
28665;BME280;15850;47.524;7.814;2022-12-18T06:23:20;98786.91;;;-3.23;100.00
28665;BME280;15850;47.524;7.814;2022-12-18T06:25:45;98791.84;;;-3.26;100.00
28665;BME280;15850;47.524;7.814;2022-12-18T06:28:11;98663.97;;;-4.12;100.00
28665;BME280;15850;47.524;7.814;2022-12-18T06:30:37;98803.00;;;-3.36;100.00
28665;BME280;15850;47.524;7.814;2022-12-18T06:33:02;98827.13;;;-3.31;100.00
28665;BME280;15850;47.524;7.814;2022-12-18T06:35:29;98750.78;;;-3.56;100.00
28665;BME280;15850;47.524;7.814;2022-12-18T06:37:55;98790.44;;;-3.47;100.00
28665;BME280;15850;47.524;7.814;2022-12-18T06:40:21;98768.22;;;-3.85;100.00
28665;BME280;15850;47.524;7.814;2022-12-18T06:42:46;98789.50;;;-3.60;100.00
28665;BME280;15850;47.524;7.814;2022-12-18T06:45:14;98757.22;;;-3.88;100.00
28665;BME280;15850;47.524;7.814;2022-12-18T06:47:40;98804.22;;;-3.57;100.00
28665;BME280;15850;47.524;7.814;2022-12-18T06:50:06;98622.44;;;-4.81;100.00
28665;BME280;15850;47.524;7.814;2022-12-18T06:52:34;98818.44;;;-3.70;100.00
28665;BME280;15850;47.524;7.814;2022-12-18T06:55:00;98797.81;;;-3.74;100.00
28665;BME280;15850;47.524;7.814;2022-12-18T06:57:26;98758.88;;;-3.87;100.00
28665;BME280;15850;47.524;7.814;2022-12-18T06:59:51;98741.38;;;-4.02;100.00
28665;BME280;15850;47.524;7.814;2022-12-18T07:02:17;98707.66;;;-4.26;100.00
28665;BME280;15850;47.524;7.814;2022-12-18T07:04:42;98789.19;;;-3.70;100.00
28665;BME280;15850;47.524;7.814;2022-12-18T07:07:08;98819.53;;;-3.52;100.00
28665;BME280;15850;47.524;7.814;2022-12-18T07:09:35;98775.53;;;-3.73;100.00
28665;BME280;15850;47.524;7.814;2022-12-18T07:12:01;98571.09;;;-5.00;100.00
28665;BME280;15850;47.524;7.814;2022-12-18T07:14:26;98866.00;;;-3.30;100.00
28665;BME280;15850;47.524;7.814;2022-12-18T07:16:52;98089.81;;;-7.91;100.00
28665;BME280;15850;47.524;7.814;2022-12-18T07:19:18;98365.53;;;-6.23;100.00
28665;BME280;15850;47.524;7.814;2022-12-18T07:21:44;98587.16;;;-4.88;100.00
28665;BME280;15850;47.524;7.814;2022-12-18T07:24:11;98116.19;;;-7.71;100.00
28665;BME280;15850;47.524;7.814;2022-12-18T07:26:39;98830.59;;;-3.12;100.00
28665;BME280;15850;47.524;7.814;2022-12-18T07:29:04;98866.25;;;-3.13;100.00
28665;BME280;15850;47.524;7.814;2022-12-18T07:31:30;98646.31;;;-4.50;100.00
28665;BME280;15850;47.524;7.814;2022-12-18T07:33:55;98780.97;;;-3.43;100.00
28665;BME280;15850;47.524;7.814;2022-12-18T07:36:24;98823.84;;;-3.33;100.00
28665;BME280;15850;47.524;7.814;2022-12-18T07:38:50;98613.84;;;-4.52;100.00
28665;BME280;15850;47.524;7.814;2022-12-18T07:41:16;98739.47;;;-3.69;100.00
28665;BME280;15850;47.524;7.814;2022-12-18T07:43:43;98784.22;;;-3.41;100.00
28665;BME280;15850;47.524;7.814;2022-12-18T07:46:10;98850.81;;;-3.04;100.00
28665;BME280;15850;47.524;7.814;2022-12-18T07:48:36;98851.91;;;-3.12;100.00
28665;BME280;15850;47.524;7.814;2022-12-18T07:51:03;98860.25;;;-3.09;100.00
28665;BME280;15850;47.524;7.814;2022-12-18T07:53:31;98782.81;;;-3.44;100.00
28665;BME280;15850;47.524;7.814;2022-12-18T07:55:57;98861.09;;;-2.90;100.00
28665;BME280;15850;47.524;7.814;2022-12-18T07:58:23;98871.38;;;-2.75;100.00
28665;BME280;15850;47.524;7.814;2022-12-18T08:00:50;98879.59;;;-2.76;100.00
28665;BME280;15850;47.524;7.814;2022-12-18T08:03:16;98829.78;;;-3.13;100.00
28665;BME280;15850;47.524;7.814;2022-12-18T08:05:41;98840.88;;;-3.16;100.00
28665;BME280;15850;47.524;7.814;2022-12-18T08:08:07;98828.25;;;-3.20;100.00
28665;BME280;15850;47.524;7.814;2022-12-18T08:10:33;98901.28;;;-2.91;100.00
28665;BME280;15850;47.524;7.814;2022-12-18T08:12:58;98806.53;;;-3.42;100.00
28665;BME280;15850;47.524;7.814;2022-12-18T08:15:24;98891.75;;;-2.62;100.00
28665;BME280;15850;47.524;7.814;2022-12-18T08:17:51;98881.53;;;-2.84;100.00
28665;BME280;15850;47.524;7.814;2022-12-18T08:20:17;98761.09;;;-3.41;100.00
28665;BME280;15850;47.524;7.814;2022-12-18T08:22:42;98901.94;;;-2.59;100.00
28665;BME280;15850;47.524;7.814;2022-12-18T08:25:08;98479.91;;;-5.31;100.00
28665;BME280;15850;47.524;7.814;2022-12-18T08:27:34;98910.47;;;-2.50;100.00
28665;BME280;15850;47.524;7.814;2022-12-18T08:30:00;98862.34;;;-2.92;100.00
28665;BME280;15850;47.524;7.814;2022-12-18T08:32:26;98780.91;;;-3.37;100.00
28665;BME280;15850;47.524;7.814;2022-12-18T08:34:53;98748.88;;;-3.48;100.00
28665;BME280;15850;47.524;7.814;2022-12-18T08:37:19;98862.81;;;-2.77;100.00
28665;BME280;15850;47.524;7.814;2022-12-18T08:39:45;98815.66;;;-2.95;100.00
28665;BME280;15850;47.524;7.814;2022-12-18T08:42:10;98907.22;;;-2.34;100.00
28665;BME280;15850;47.524;7.814;2022-12-18T08:44:36;98833.50;;;-2.77;100.00
28665;BME280;15850;47.524;7.814;2022-12-18T08:47:01;98844.03;;;-2.64;100.00
28665;BME280;15850;47.524;7.814;2022-12-18T08:49:27;98902.69;;;-2.15;100.00
28665;BME280;15850;47.524;7.814;2022-12-18T08:51:55;98840.38;;;-2.51;100.00
28665;BME280;15850;47.524;7.814;2022-12-18T08:54:20;98893.84;;;-2.16;100.00
28665;BME280;15850;47.524;7.814;2022-12-18T08:56:46;98820.56;;;-2.55;100.00
28665;BME280;15850;47.524;7.814;2022-12-18T08:59:11;98831.53;;;-2.33;100.00
28665;BME280;15850;47.524;7.814;2022-12-18T09:01:37;98691.78;;;-3.27;100.00
28665;BME280;15850;47.524;7.814;2022-12-18T09:04:03;98431.31;;;-4.81;100.00
28665;BME280;15850;47.524;7.814;2022-12-18T09:06:28;98823.16;;;-2.48;100.00
28665;BME280;15850;47.524;7.814;2022-12-18T09:08:56;98893.31;;;-2.06;100.00
28665;BME280;15850;47.524;7.814;2022-12-18T09:11:24;98897.53;;;-1.98;100.00
28665;BME280;15850;47.524;7.814;2022-12-18T09:13:51;98900.47;;;-1.88;100.00
28665;BME280;15850;47.524;7.814;2022-12-18T09:16:17;98907.94;;;-2.08;100.00
28665;BME280;15850;47.524;7.814;2022-12-18T09:18:43;98794.22;;;-2.81;100.00
28665;BME280;15850;47.524;7.814;2022-12-18T09:21:09;98801.81;;;-2.48;100.00
28665;BME280;15850;47.524;7.814;2022-12-18T09:23:35;98906.97;;;-1.84;100.00
28665;BME280;15850;47.524;7.814;2022-12-18T09:26:02;98870.19;;;-2.24;100.00
28665;BME280;15850;47.524;7.814;2022-12-18T09:28:29;98909.81;;;-1.97;100.00
28665;BME280;15850;47.524;7.814;2022-12-18T09:30:55;98904.94;;;-2.00;100.00
28665;BME280;15850;47.524;7.814;2022-12-18T09:33:21;98875.09;;;-2.09;100.00
28665;BME280;15850;47.524;7.814;2022-12-18T09:35:46;98873.91;;;-1.95;100.00
28665;BME280;15850;47.524;7.814;2022-12-18T09:38:13;98763.00;;;-2.74;100.00
28665;BME280;15850;47.524;7.814;2022-12-18T09:40:41;98746.19;;;-2.75;100.00
28665;BME280;15850;47.524;7.814;2022-12-18T09:43:14;98906.53;;;-1.81;100.00
28665;BME280;15850;47.524;7.814;2022-12-18T09:45:44;98916.19;;;-1.68;100.00
28665;BME280;15850;47.524;7.814;2022-12-18T09:48:17;98919.34;;;-1.59;100.00
28665;BME280;15850;47.524;7.814;2022-12-18T09:50:45;98895.03;;;-1.81;100.00
28665;BME280;15850;47.524;7.814;2022-12-18T09:53:15;98931.56;;;-1.52;100.00
28665;BME280;15850;47.524;7.814;2022-12-18T09:55:43;98925.69;;;-1.42;100.00
28665;BME280;15850;47.524;7.814;2022-12-18T09:58:17;98926.94;;;-1.45;100.00
28665;BME280;15850;47.524;7.814;2022-12-18T10:00:45;98919.97;;;-1.46;100.00
28665;BME280;15850;47.524;7.814;2022-12-18T10:03:12;98914.91;;;-1.35;100.00
28665;BME280;15850;47.524;7.814;2022-12-18T10:05:45;98893.66;;;-1.42;100.00
28665;BME280;15850;47.524;7.814;2022-12-18T10:08:18;98862.72;;;-1.61;100.00
28665;BME280;15850;47.524;7.814;2022-12-18T10:10:49;98715.06;;;-2.74;100.00
28665;BME280;15850;47.524;7.814;2022-12-18T10:13:22;98917.78;;;-1.37;100.00
28665;BME280;15850;47.524;7.814;2022-12-18T10:16:00;98818.56;;;-1.99;100.00
28665;BME280;15850;47.524;7.814;2022-12-18T10:18:42;98904.69;;;-1.27;100.00
28665;BME280;15850;47.524;7.814;2022-12-18T10:21:13;98900.75;;;-1.24;100.00
28665;BME280;15850;47.524;7.814;2022-12-18T10:23:47;98872.63;;;-1.38;100.00
28665;BME280;15850;47.524;7.814;2022-12-18T10:26:16;98893.19;;;-1.27;100.00
28665;BME280;15850;47.524;7.814;2022-12-18T10:28:43;98877.16;;;-1.39;100.00
28665;BME280;15850;47.524;7.814;2022-12-18T10:31:14;98919.66;;;-1.26;100.00
28665;BME280;15850;47.524;7.814;2022-12-18T10:33:40;98892.69;;;-1.36;100.00
28665;BME280;15850;47.524;7.814;2022-12-18T10:36:06;98579.06;;;-3.21;100.00
28665;BME280;15850;47.524;7.814;2022-12-18T10:38:33;98651.94;;;-2.74;100.00
28665;BME280;15850;47.524;7.814;2022-12-18T10:41:00;98884.16;;;-1.14;100.00
28665;BME280;15850;47.524;7.814;2022-12-18T10:43:27;98883.34;;;-1.15;100.00
28665;BME280;15850;47.524;7.814;2022-12-18T10:46:15;98826.44;;;-1.51;100.00
28665;BME280;15850;47.524;7.814;2022-12-18T10:48:51;98841.50;;;-1.33;100.00
28665;BME280;15850;47.524;7.814;2022-12-18T10:51:23;98872.31;;;-0.95;100.00
28665;BME280;15850;47.524;7.814;2022-12-18T10:53:55;98767.59;;;-1.68;100.00
28665;BME280;15850;47.524;7.814;2022-12-18T10:56:22;98871.72;;;-0.97;100.00
28665;BME280;15850;47.524;7.814;2022-12-18T10:58:56;98878.00;;;-0.91;100.00
28665;BME280;15850;47.524;7.814;2022-12-18T11:01:24;98872.19;;;-0.88;100.00
28665;BME280;15850;47.524;7.814;2022-12-18T11:04:00;98866.25;;;-0.90;100.00
28665;BME280;15850;47.524;7.814;2022-12-18T11:06:25;98858.34;;;-0.97;100.00
28665;BME280;15850;47.524;7.814;2022-12-18T11:08:57;98733.13;;;-1.69;100.00
28665;BME280;15850;47.524;7.814;2022-12-18T11:11:24;98861.13;;;-0.68;100.00
28665;BME280;15850;47.524;7.814;2022-12-18T11:13:58;98787.19;;;-1.15;100.00
28665;BME280;15850;47.524;7.814;2022-12-18T11:16:26;98604.53;;;-2.06;100.00
28665;BME280;15850;47.524;7.814;2022-12-18T11:18:52;98875.28;;;-0.56;100.00
28665;BME280;15850;47.524;7.814;2022-12-18T11:21:18;98880.97;;;-0.64;100.00
28665;BME280;15850;47.524;7.814;2022-12-18T11:23:47;98836.00;;;-0.67;100.00
28665;BME280;15850;47.524;7.814;2022-12-18T11:26:14;98852.38;;;-0.64;100.00
28665;BME280;15850;47.524;7.814;2022-12-18T11:28:41;98473.72;;;-2.87;100.00
28665;BME280;15850;47.524;7.814;2022-12-18T11:31:28;98743.91;;;-1.29;100.00
28665;BME280;15850;47.524;7.814;2022-12-18T11:33:59;98620.19;;;-1.98;100.00
28665;BME280;15850;47.524;7.814;2022-12-18T11:36:29;98876.19;;;-0.39;100.00
28665;BME280;15850;47.524;7.814;2022-12-18T11:38:59;98843.69;;;-0.31;100.00
28665;BME280;15850;47.524;7.814;2022-12-18T11:41:30;98652.59;;;-1.66;100.00
28665;BME280;15850;47.524;7.814;2022-12-18T11:44:00;98843.78;;;-0.54;100.00
28665;BME280;15850;47.524;7.814;2022-12-18T11:46:32;98839.28;;;-0.25;100.00
28665;BME280;15850;47.524;7.814;2022-12-18T11:49:06;98799.59;;;-0.57;100.00
28665;BME280;15850;47.524;7.814;2022-12-18T11:51:38;98834.91;;;-0.14;100.00
28665;BME280;15850;47.524;7.814;2022-12-18T11:54:12;98833.81;;;-0.30;100.00
28665;BME280;15850;47.524;7.814;2022-12-18T11:56:43;98662.22;;;-1.53;100.00
28665;BME280;15850;47.524;7.814;2022-12-18T11:59:17;98655.03;;;-1.41;100.00
28665;BME280;15850;47.524;7.814;2022-12-18T12:01:52;98820.22;;;-0.29;100.00
28665;BME280;15850;47.524;7.814;2022-12-18T12:04:48;98786.22;;;-0.45;100.00
28665;BME280;15850;47.524;7.814;2022-12-18T12:07:29;98804.28;;;-0.07;100.00
28665;BME280;15850;47.524;7.814;2022-12-18T12:10:07;98806.06;;;-0.12;100.00
28665;BME280;15850;47.524;7.814;2022-12-18T12:12:50;98756.34;;;-0.42;100.00
28665;BME280;15850;47.524;7.814;2022-12-18T12:15:29;98702.00;;;-0.88;100.00
28665;BME280;15850;47.524;7.814;2022-12-18T12:18:01;98700.38;;;-0.60;100.00
28665;BME280;15850;47.524;7.814;2022-12-18T12:20:42;98818.19;;;0.07;100.00
28665;BME280;15850;47.524;7.814;2022-12-18T12:23:16;98734.97;;;-0.54;100.00
28665;BME280;15850;47.524;7.814;2022-12-18T12:25:48;98554.09;;;-1.56;100.00
28665;BME280;15850;47.524;7.814;2022-12-18T12:28:22;98491.56;;;-1.88;100.00
28665;BME280;15850;47.524;7.814;2022-12-18T12:31:01;98459.88;;;-2.14;100.00
28665;BME280;15850;47.524;7.814;2022-12-18T12:33:39;98740.94;;;-0.35;100.00
28665;BME280;15850;47.524;7.814;2022-12-18T12:36:14;98739.72;;;-0.44;100.00
28665;BME280;15850;47.524;7.814;2022-12-18T12:38:43;98801.06;;;-0.09;100.00
28665;BME280;15850;47.524;7.814;2022-12-18T12:41:14;98797.03;;;0.06;100.00
28665;BME280;15850;47.524;7.814;2022-12-18T12:43:44;98786.41;;;-0.06;100.00
28665;BME280;15850;47.524;7.814;2022-12-18T12:46:12;98784.59;;;-0.01;100.00
28665;BME280;15850;47.524;7.814;2022-12-18T12:48:43;98722.22;;;-0.35;100.00
28665;BME280;15850;47.524;7.814;2022-12-18T12:51:16;98779.09;;;0.06;100.00
28665;BME280;15850;47.524;7.814;2022-12-18T12:53:42;98629.75;;;-0.64;100.00
28665;BME280;15850;47.524;7.814;2022-12-18T12:56:10;98731.97;;;-0.29;100.00
28665;BME280;15850;47.524;7.814;2022-12-18T12:58:43;98797.19;;;0.33;100.00
28665;BME280;15850;47.524;7.814;2022-12-18T13:01:17;98790.50;;;0.30;100.00
28665;BME280;15850;47.524;7.814;2022-12-18T13:03:57;98742.06;;;-0.02;100.00
28665;BME280;15850;47.524;7.814;2022-12-18T13:06:41;98736.84;;;-0.09;100.00
28665;BME280;15850;47.524;7.814;2022-12-18T13:09:08;98790.06;;;0.38;100.00